createdAt,value
2022-09-14T00:01:42.329Z,18.00
2022-09-14T00:04:13.205Z,24.03
2022-09-14T00:06:41.185Z,24.97
2022-09-14T00:09:11.295Z,24.97
2022-09-14T00:11:39.643Z,20.43
2022-09-14T00:14:07.394Z,22.67
2022-09-14T00:16:38.460Z,23.60
2022-09-14T00:19:09.013Z,22.70
2022-09-14T00:21:38.934Z,22.80
2022-09-14T00:24:08.526Z,22.53
2022-09-14T00:26:36.921Z,25.70
2022-09-14T00:29:06.240Z,26.50
2022-09-14T00:31:38.112Z,27.50
2022-09-14T00:34:07.566Z,20.80
2022-09-14T00:36:40.240Z,24.50
2022-09-14T00:39:08.667Z,23.37
2022-09-14T00:41:39.614Z,25.67
2022-09-14T00:44:28.813Z,24.10
2022-09-14T00:46:59.427Z,22.97
2022-09-14T00:49:31.961Z,26.77
2022-09-14T00:52:04.727Z,24.50
2022-09-14T00:54:32.475Z,22.47
2022-09-14T00:57:04.167Z,24.30
2022-09-14T00:59:36.305Z,26.47
2022-09-14T01:02:06.272Z,24.93
2022-09-14T01:04:33.962Z,26.33
2022-09-14T01:07:19.452Z,23.67
2022-09-14T01:09:58.124Z,24.97
2022-09-14T01:12:33.236Z,20.80
2022-09-14T01:15:05.980Z,20.67
2022-09-14T01:17:42.731Z,22.17
2022-09-14T01:20:25.784Z,29.20
2022-09-14T01:23:06.762Z,22.17
2022-09-14T01:25:53.161Z,29.17
2022-09-14T01:28:28.020Z,26.57
2022-09-14T01:31:03.454Z,27.87
2022-09-14T01:33:36.594Z,24.47
2022-09-14T01:36:08.567Z,23.43
2022-09-14T01:38:43.147Z,26.63
2022-09-14T01:41:14.466Z,23.77
2022-09-14T01:43:50.436Z,24.00
2022-09-14T01:46:24.249Z,23.87
2022-09-14T01:48:55.873Z,20.80
2022-09-14T01:51:29.260Z,27.03
2022-09-14T01:54:03.500Z,18.77
2022-09-14T01:56:38.854Z,23.70
2022-09-14T01:59:12.340Z,18.60
2022-09-14T02:01:51.342Z,22.57
2022-09-14T02:04:27.376Z,20.60
2022-09-14T02:06:56.400Z,27.13
2022-09-14T02:09:26.783Z,20.83
2022-09-14T02:11:55.934Z,20.50
2022-09-14T02:14:24.944Z,19.23
2022-09-14T02:16:52.578Z,20.50
2022-09-14T02:19:23.867Z,19.60
2022-09-14T02:21:52.107Z,21.17
2022-09-14T02:24:20.056Z,21.83
2022-09-14T02:26:52.413Z,20.23
2022-09-14T02:29:20.320Z,20.10
2022-09-14T02:32:05.063Z,23.80
2022-09-14T02:34:38.795Z,18.30
2022-09-14T02:37:12.813Z,21.50
2022-09-14T02:39:47.329Z,19.60
2022-09-14T02:42:27.647Z,18.90
2022-09-14T02:45:04.191Z,20.40
2022-09-14T02:47:41.502Z,18.47
2022-09-14T02:50:19.947Z,20.10
2022-09-14T02:52:53.226Z,19.47
2022-09-14T02:55:22.882Z,16.30
2022-09-14T02:58:00.714Z,21.03
2022-09-14T03:00:29.161Z,17.13
2022-09-14T03:02:58.329Z,23.27
2022-09-14T03:05:27.258Z,18.83
2022-09-14T03:07:54.871Z,23.60
2022-09-14T03:10:22.817Z,21.67
2022-09-14T03:12:50.581Z,23.00
2022-09-14T03:15:18.373Z,17.10
2022-09-14T03:17:48.071Z,23.20
2022-09-14T03:20:22.477Z,20.03
2022-09-14T03:22:50.415Z,17.93
2022-09-14T03:25:18.930Z,21.40
2022-09-14T03:27:50.021Z,22.60
2022-09-14T03:30:17.940Z,22.13
2022-09-14T03:32:45.882Z,20.87
2022-09-14T03:35:15.515Z,23.30
2022-09-14T03:37:45.623Z,25.03
2022-09-14T03:40:21.924Z,28.43
2022-09-14T03:42:51.281Z,21.30
2022-09-14T03:45:20.544Z,26.13
2022-09-14T03:47:48.715Z,28.07
2022-09-14T03:50:17.383Z,26.87
2022-09-14T03:52:46.330Z,23.10
2022-09-14T03:55:14.226Z,23.37
2022-09-14T03:57:41.837Z,22.03
2022-09-14T04:00:10.942Z,22.87
2022-09-14T04:02:38.686Z,23.90
2022-09-14T04:05:06.692Z,24.93
2022-09-14T04:07:34.408Z,21.80
2022-09-14T04:10:04.144Z,26.90
2022-09-14T04:12:36.073Z,14.97
2022-09-14T04:15:04.419Z,17.97
2022-09-14T04:17:32.031Z,22.93
2022-09-14T04:19:59.640Z,27.03
2022-09-14T04:22:27.416Z,27.27
2022-09-14T04:24:54.990Z,22.63
2022-09-14T04:27:24.071Z,23.30
2022-09-14T04:29:51.956Z,26.10
2022-09-14T04:32:19.792Z,28.47
2022-09-14T04:34:47.541Z,21.73
2022-09-14T04:37:15.179Z,23.93
2022-09-14T04:39:43.084Z,25.07
2022-09-14T04:42:10.743Z,24.10
2022-09-14T04:44:39.775Z,24.27
2022-09-14T04:47:07.770Z,25.27
2022-09-14T04:49:35.314Z,24.13
2022-09-14T04:52:03.506Z,23.67
2022-09-14T04:54:31.172Z,27.13
2022-09-14T04:56:58.781Z,24.10
2022-09-14T04:59:26.387Z,24.70
2022-09-14T05:01:55.519Z,25.07
2022-09-14T05:04:23.176Z,28.33
2022-09-14T05:06:51.136Z,26.40
2022-09-14T05:09:21.684Z,21.50
2022-09-14T05:11:51.777Z,22.87
2022-09-14T05:14:19.782Z,22.80
2022-09-14T05:16:47.969Z,25.53
2022-09-14T05:19:18.577Z,20.57
2022-09-14T05:21:48.811Z,21.43
2022-09-14T05:24:19.467Z,19.07
2022-09-14T05:26:47.689Z,21.43
2022-09-14T05:29:18.287Z,20.10
2022-09-14T05:34:32.639Z,20.53
2022-09-14T05:37:00.347Z,21.53
2022-09-14T05:39:28.091Z,20.63
2022-09-14T05:41:55.727Z,19.90
2022-09-14T05:44:23.446Z,18.03
2022-09-14T05:46:51.163Z,19.90
2022-09-14T05:49:18.839Z,16.53
2022-09-14T05:51:47.833Z,18.90
2022-09-14T05:54:15.663Z,16.30
2022-09-14T05:56:43.188Z,16.87
2022-09-14T05:59:10.845Z,14.90
2022-09-14T06:01:38.506Z,18.50
2022-09-14T06:04:06.392Z,17.93
2022-09-14T06:06:34.832Z,13.17
2022-09-14T06:09:07.692Z,14.40
2022-09-14T06:11:37.214Z,15.73
2022-09-14T06:14:05.734Z,12.57
2022-09-14T06:16:33.309Z,14.47
2022-09-14T06:19:01.601Z,11.67
2022-09-14T06:21:31.337Z,15.07
2022-09-14T06:23:59.532Z,12.70
2022-09-14T06:26:34.492Z,13.53
2022-09-14T06:29:02.237Z,11.67
2022-09-14T06:31:31.719Z,13.40
2022-09-14T06:33:59.503Z,13.33
2022-09-14T06:36:28.775Z,9.40
2022-09-14T06:38:56.744Z,12.20
2022-09-14T06:41:31.446Z,17.50
2022-09-14T06:44:02.043Z,9.10
2022-09-14T06:46:31.454Z,11.37
2022-09-14T06:49:01.050Z,11.93
2022-09-14T06:51:30.923Z,12.50
2022-09-14T06:54:00.347Z,11.77
2022-09-14T06:56:28.614Z,11.37
2022-09-14T06:58:56.317Z,9.43
2022-09-14T07:01:28.048Z,11.10
2022-09-14T07:03:55.708Z,8.43
2022-09-14T07:06:25.406Z,10.93
2022-09-14T07:08:54.443Z,11.10
2022-09-14T07:11:25.612Z,9.83
2022-09-14T07:13:56.900Z,8.53
2022-09-14T07:16:30.174Z,9.00
2022-09-14T07:19:02.343Z,11.57
2022-09-14T07:21:33.957Z,9.10
2022-09-14T07:24:02.303Z,10.90
2022-09-14T07:26:32.023Z,12.20
2022-09-14T07:29:02.001Z,11.17
2022-09-14T07:31:35.631Z,6.80
2022-09-14T07:34:04.928Z,7.30
2022-09-14T07:36:35.247Z,8.37
2022-09-14T07:39:05.202Z,10.10
2022-09-14T07:41:34.684Z,7.57
2022-09-14T07:44:03.846Z,7.53
2022-09-14T07:46:38.198Z,8.20
2022-09-14T07:49:06.772Z,13.10
2022-09-14T07:51:36.986Z,14.17
2022-09-14T07:54:05.412Z,10.50
2022-09-14T07:56:34.107Z,10.93
2022-09-14T07:59:30.796Z,7.30
2022-09-14T08:01:51.856Z,8.73
2022-09-14T08:04:19.608Z,11.23
2022-09-14T08:06:47.287Z,10.97
2022-09-14T08:09:15.042Z,10.43
2022-09-14T08:11:42.826Z,8.47
2022-09-14T08:14:14.293Z,7.57
2022-09-14T08:16:42.210Z,8.43
2022-09-14T08:19:16.539Z,9.97
2022-09-14T08:21:47.698Z,8.03
2022-09-14T08:24:19.896Z,8.87
2022-09-14T08:26:48.404Z,9.33
2022-09-14T08:29:17.611Z,10.90
2022-09-14T08:31:46.083Z,6.93
2022-09-14T08:34:18.894Z,6.00
2022-09-14T08:36:48.259Z,6.80
2022-09-14T08:39:18.103Z,4.80
2022-09-14T08:41:52.345Z,5.60
2022-09-14T08:44:23.223Z,6.80
2022-09-14T08:46:55.796Z,6.30
2022-09-14T08:49:36.036Z,9.07
2022-09-14T08:52:03.985Z,7.20
2022-09-14T08:54:33.087Z,7.00
2022-09-14T08:57:10.516Z,17.00
2022-09-14T08:59:46.486Z,6.83
2022-09-14T09:02:36.803Z,6.90
2022-09-14T09:05:24.862Z,5.90
2022-09-14T09:07:59.354Z,5.10
2022-09-14T09:10:28.142Z,5.27
2022-09-14T09:12:58.749Z,7.00
2022-09-14T09:15:29.815Z,6.80
2022-09-14T09:18:00.973Z,8.77
2022-09-14T09:20:33.619Z,7.37
2022-09-14T09:23:11.942Z,5.43
2022-09-14T09:25:51.241Z,15.23
2022-09-14T09:28:21.087Z,8.60
2022-09-14T09:30:49.065Z,8.77
2022-09-14T09:33:22.012Z,6.10
2022-09-14T09:35:51.413Z,8.23
2022-09-14T09:38:24.750Z,5.50
2022-09-14T09:40:55.551Z,8.50
2022-09-14T09:43:38.960Z,10.97
2022-09-14T09:46:13.672Z,17.77
2022-09-14T09:48:44.381Z,4.03
2022-09-14T09:51:15.677Z,6.20
2022-09-14T09:53:49.594Z,5.63
2022-09-14T09:56:27.665Z,6.00
2022-09-14T09:58:56.051Z,6.87
2022-09-14T10:01:29.784Z,5.37
2022-09-14T10:04:18.984Z,8.50
2022-09-14T10:06:49.886Z,4.90
2022-09-14T10:09:19.634Z,5.20
2022-09-14T10:11:49.372Z,9.70
2022-09-14T10:14:24.713Z,8.00
2022-09-14T10:16:52.758Z,9.17
2022-09-14T10:19:24.542Z,6.90
2022-09-14T10:22:18.672Z,6.13
2022-09-14T10:25:00.430Z,5.83
2022-09-14T10:27:40.645Z,4.43
2022-09-14T10:30:14.785Z,4.83
2022-09-14T10:32:46.671Z,5.73
2022-09-14T10:35:16.135Z,10.67
2022-09-14T10:37:58.051Z,5.07
2022-09-14T10:40:33.939Z,3.70
2022-09-14T10:43:12.547Z,6.20
2022-09-14T10:45:45.072Z,5.10
2022-09-14T10:48:27.568Z,4.70
2022-09-14T10:51:02.583Z,6.30
2022-09-14T10:53:45.197Z,4.77
2022-09-14T10:56:18.876Z,8.83
2022-09-14T10:59:07.362Z,8.20
2022-09-14T11:01:53.901Z,5.10
2022-09-14T11:04:47.558Z,5.93
2022-09-14T11:07:23.067Z,6.20
2022-09-14T11:10:02.243Z,5.90
2022-09-14T11:12:36.965Z,5.80
2022-09-14T11:15:15.143Z,9.73
2022-09-14T11:18:03.289Z,5.60
2022-09-14T11:20:42.717Z,7.70
2022-09-14T11:23:24.298Z,9.70
2022-09-14T11:25:58.026Z,8.20
2022-09-14T11:28:30.261Z,12.27
2022-09-14T11:31:03.650Z,7.60
2022-09-14T11:33:37.307Z,7.40
2022-09-14T11:36:10.533Z,7.80
2022-09-14T11:38:45.930Z,8.40
2022-09-14T11:41:25.031Z,7.50
2022-09-14T11:43:58.920Z,10.20
2022-09-14T11:46:31.481Z,8.47
2022-09-14T11:49:08.850Z,8.13
2022-09-14T11:51:44.935Z,11.83
2022-09-14T11:54:17.044Z,10.67
2022-09-14T11:56:48.920Z,8.70
2022-09-14T11:59:34.892Z,10.33
2022-09-14T12:02:50.661Z,8.80
2022-09-14T12:05:26.405Z,10.23
2022-09-14T12:08:23.135Z,8.27
2022-09-14T12:11:01.768Z,14.03
2022-09-14T12:13:31.432Z,6.97
2022-09-14T12:16:04.385Z,12.20
2022-09-14T12:18:33.109Z,12.20
2022-09-14T12:21:02.794Z,9.30
2022-09-14T12:23:42.104Z,12.27
2022-09-14T12:26:33.125Z,9.07
2022-09-14T12:29:07.767Z,8.50
2022-09-14T12:31:55.791Z,8.90
2022-09-14T12:34:24.720Z,6.57
2022-09-14T12:37:31.338Z,7.00
2022-09-14T12:40:36.359Z,10.00
2022-09-14T12:43:47.214Z,7.13
2022-09-14T12:46:41.387Z,9.27
2022-09-14T12:49:35.684Z,7.43
2022-09-14T12:52:28.160Z,6.50
2022-09-14T12:55:11.910Z,13.90
2022-09-14T12:57:47.465Z,5.90
2022-09-14T13:00:18.191Z,9.23
2022-09-14T13:03:00.547Z,10.70
2022-09-14T13:05:31.058Z,12.80
2022-09-14T13:07:58.960Z,8.20
2022-09-14T13:10:31.798Z,10.63
2022-09-14T13:13:02.099Z,11.33
2022-09-14T13:15:33.556Z,12.13
2022-09-14T13:18:04.928Z,15.97
2022-09-14T13:20:35.877Z,6.90
2022-09-14T13:23:04.042Z,10.83
2022-09-14T13:25:34.413Z,11.10
2022-09-14T13:28:05.472Z,12.40
2022-09-14T13:30:35.501Z,9.20
2022-09-14T13:33:04.784Z,9.97
2022-09-14T13:35:35.624Z,12.60
2022-09-14T13:38:09.264Z,11.13
2022-09-14T13:40:37.192Z,8.90
2022-09-14T13:43:05.512Z,11.70
2022-09-14T13:45:33.789Z,8.73
2022-09-14T13:48:02.284Z,10.77
2022-09-14T13:50:31.267Z,8.83
2022-09-14T13:53:03.713Z,13.30
2022-09-14T13:55:45.496Z,11.27
2022-09-14T13:58:16.030Z,9.37
2022-09-14T14:00:56.107Z,10.30
2022-09-14T14:03:36.847Z,11.97
2022-09-14T14:06:21.142Z,13.43
2022-09-14T14:09:04.210Z,11.70
2022-09-14T14:11:38.172Z,10.67
2022-09-14T14:14:14.691Z,11.33
2022-09-14T14:16:42.695Z,12.10
2022-09-14T14:19:30.971Z,13.93
2022-09-14T14:22:19.507Z,9.00
2022-09-14T14:25:12.859Z,13.87
2022-09-14T14:27:38.748Z,16.93
2022-09-14T14:30:15.358Z,12.90
2022-09-14T14:32:43.187Z,12.30
2022-09-14T14:35:16.391Z,10.73
2022-09-14T14:37:45.555Z,12.57
2022-09-14T14:40:13.711Z,15.70
2022-09-14T14:42:42.562Z,11.80
2022-09-14T14:45:14.912Z,17.03
2022-09-14T14:47:42.623Z,17.30
2022-09-14T14:50:14.910Z,13.23
2022-09-14T14:52:42.660Z,13.40
2022-09-14T14:55:12.383Z,10.17
2022-09-14T14:57:39.996Z,14.67
2022-09-14T15:00:14.375Z,12.77
2022-09-14T15:02:42.188Z,12.83
2022-09-14T15:05:11.178Z,10.77
2022-09-14T15:07:38.973Z,18.00
2022-09-14T15:10:08.321Z,13.57
2022-09-14T15:12:37.374Z,12.40
2022-09-14T15:15:05.647Z,10.43
2022-09-14T15:17:34.347Z,12.20
2022-09-14T15:20:02.037Z,16.57
2022-09-14T15:22:29.571Z,12.63
2022-09-14T15:24:59.472Z,12.90
2022-09-14T15:27:27.127Z,17.43
2022-09-14T15:29:56.094Z,21.23
2022-09-14T15:32:23.660Z,17.30
2022-09-14T15:34:52.883Z,17.13
2022-09-14T15:37:20.809Z,15.70
2022-09-14T15:39:50.511Z,16.37
2022-09-14T15:42:18.458Z,13.97
2022-09-14T15:44:46.117Z,17.13
2022-09-14T15:47:15.623Z,12.73
2022-09-14T15:49:43.545Z,25.53
2022-09-14T15:52:12.065Z,15.80
2022-09-14T15:54:40.326Z,15.10
2022-09-14T15:57:13.711Z,14.30
2022-09-14T15:59:41.255Z,13.93
2022-09-14T16:02:10.632Z,20.50
2022-09-14T16:04:40.434Z,15.67
2022-09-14T16:07:10.602Z,20.93
2022-09-14T16:09:39.482Z,23.23
2022-09-14T16:12:07.950Z,17.13
2022-09-14T16:14:35.466Z,20.83
2022-09-14T16:17:03.551Z,17.37
2022-09-14T16:19:31.152Z,25.30
2022-09-14T16:22:00.147Z,18.60
2022-09-14T16:24:29.036Z,28.33
2022-09-14T16:26:57.787Z,28.23
2022-09-14T16:29:26.196Z,24.70
2022-09-14T16:31:54.797Z,27.80
2022-09-14T16:34:24.420Z,25.40
2022-09-14T16:36:52.953Z,29.67
2022-09-14T16:39:24.962Z,31.40
2022-09-14T16:41:53.935Z,28.90
2022-09-14T16:44:24.222Z,28.30
2022-09-14T16:46:52.883Z,26.47
2022-09-14T16:49:26.371Z,25.73
2022-09-14T16:51:55.369Z,24.13
2022-09-14T16:54:26.158Z,24.70
2022-09-14T16:56:56.035Z,23.07
2022-09-14T16:59:23.830Z,27.97
2022-09-14T17:01:54.695Z,19.87
2022-09-14T17:04:23.931Z,27.90
2022-09-14T17:06:52.395Z,25.10
2022-09-14T17:09:23.989Z,24.00
2022-09-14T17:11:54.020Z,19.67
2022-09-14T17:14:26.933Z,26.13
2022-09-14T17:16:54.835Z,20.83
2022-09-14T17:19:22.779Z,14.00
2022-09-14T17:21:50.703Z,18.77
2022-09-14T17:24:19.608Z,18.27
2022-09-14T17:26:47.801Z,12.80
2022-09-14T17:29:16.983Z,17.60
2022-09-14T17:31:46.399Z,9.50
2022-09-14T17:34:15.863Z,10.70
2022-09-14T17:36:43.985Z,7.43
2022-09-14T17:39:12.530Z,9.27
2022-09-14T17:41:40.698Z,17.70
2022-09-14T17:44:11.121Z,15.83
2022-09-14T17:46:49.627Z,11.03
2022-09-14T17:49:20.612Z,7.90
2022-09-14T17:51:49.040Z,7.40
2022-09-14T17:54:17.568Z,13.33
2022-09-14T17:56:45.218Z,4.73
2022-09-14T17:59:14.760Z,5.20
2022-09-14T18:01:43.829Z,4.43
2022-09-14T18:04:12.867Z,7.47
2022-09-14T18:06:45.315Z,6.23
2022-09-14T18:09:14.857Z,5.50
2022-09-14T18:11:43.557Z,5.47
2022-09-14T18:14:12.686Z,5.50
2022-09-14T18:16:41.129Z,6.60
2022-09-14T18:19:10.142Z,3.50
2022-09-14T18:21:38.102Z,5.00
2022-09-14T18:24:06.276Z,3.60
2022-09-14T18:26:33.803Z,4.90
2022-09-14T18:29:03.121Z,10.43
2022-09-14T18:31:31.275Z,5.57
2022-09-14T18:34:00.719Z,6.20
2022-09-14T18:36:33.386Z,5.00
2022-09-14T18:39:02.087Z,5.60
2022-09-14T18:41:31.319Z,6.97
2022-09-14T18:43:59.350Z,12.27
2022-09-14T18:46:28.739Z,4.87
2022-09-14T18:48:58.730Z,3.77
2022-09-14T18:51:27.875Z,4.77
2022-09-14T18:54:03.229Z,4.03
2022-09-14T18:56:32.999Z,3.40
2022-09-14T18:59:01.667Z,7.50
2022-09-14T19:01:29.909Z,4.83
2022-09-14T19:03:57.642Z,6.10
2022-09-14T19:06:25.318Z,8.40
2022-09-14T19:08:53.666Z,3.50
2022-09-14T19:11:24.236Z,7.20
2022-09-14T19:13:56.547Z,5.00
2022-09-14T19:16:24.215Z,3.80
2022-09-14T19:18:51.904Z,4.40
2022-09-14T19:21:23.860Z,8.23
2022-09-14T19:23:57.237Z,6.53
2022-09-14T19:26:26.189Z,5.13
2022-09-14T19:28:54.075Z,7.00
2022-09-14T19:31:23.391Z,7.60
2022-09-14T19:33:51.626Z,3.80
2022-09-14T19:36:21.474Z,4.90
2022-09-14T19:38:50.785Z,4.00
2022-09-14T19:41:19.183Z,9.60
2022-09-14T19:43:48.452Z,5.00
2022-09-14T19:46:18.149Z,5.67
2022-09-14T19:48:47.036Z,7.30
2022-09-14T19:51:17.273Z,3.13
2022-09-14T19:53:47.215Z,6.00
2022-09-14T19:56:16.783Z,4.77
2022-09-14T19:58:46.778Z,5.77
2022-09-14T20:01:16.548Z,4.33
2022-09-14T20:03:45.016Z,4.80
2022-09-14T20:06:19.191Z,5.60
2022-09-14T20:08:47.194Z,6.60
2022-09-14T20:11:20.136Z,3.47
2022-09-14T20:13:48.840Z,7.70
2022-09-14T20:16:19.711Z,4.60
2022-09-14T20:18:49.021Z,3.17
2022-09-14T20:21:18.406Z,2.40
2022-09-14T20:24:11.665Z,2.60
2022-09-14T20:26:34.820Z,3.10
2022-09-14T20:29:02.995Z,4.80
2022-09-14T20:31:32.190Z,8.10
2022-09-14T20:34:00.473Z,2.90
2022-09-14T20:36:28.515Z,6.10
2022-09-14T20:38:58.564Z,3.63
2022-09-14T20:41:28.277Z,5.10
2022-09-14T20:43:56.580Z,6.87
2022-09-14T20:46:27.399Z,3.13
2022-09-14T20:48:56.386Z,4.93
2022-09-14T20:51:25.238Z,7.03
2022-09-14T20:53:52.869Z,6.43
2022-09-14T20:56:22.455Z,5.23
2022-09-14T20:58:50.653Z,4.50
2022-09-14T21:01:21.064Z,9.93
2022-09-14T21:03:50.636Z,4.07
2022-09-14T21:06:21.581Z,7.10
2022-09-14T21:08:49.640Z,5.23
2022-09-14T21:11:19.457Z,4.27
2022-09-14T21:13:47.635Z,4.50
2022-09-14T21:16:19.013Z,5.23
2022-09-14T21:18:49.525Z,6.70
2022-09-14T21:21:20.018Z,5.27
2022-09-14T21:23:48.625Z,6.37
2022-09-14T21:26:16.342Z,6.30
2022-09-14T21:28:44.010Z,7.77
2022-09-14T21:31:13.719Z,5.90
2022-09-14T21:33:44.526Z,3.93
2022-09-14T21:36:14.753Z,6.67
2022-09-14T21:38:44.036Z,4.60
2022-09-14T21:41:12.479Z,12.43
2022-09-14T21:43:42.000Z,5.80
2022-09-14T21:46:10.741Z,4.53
2022-09-14T21:48:38.969Z,3.77
2022-09-14T21:51:09.658Z,4.77
2022-09-14T21:53:37.468Z,3.97
2022-09-14T21:56:07.570Z,4.40
2022-09-14T21:58:35.164Z,9.40
2022-09-14T22:01:03.774Z,5.83
2022-09-14T22:03:31.723Z,9.33
2022-09-14T22:06:01.120Z,7.73
2022-09-14T22:08:31.083Z,8.00
2022-09-14T22:11:03.598Z,7.90
2022-09-14T22:13:33.078Z,8.27
2022-09-14T22:16:07.654Z,6.20
2022-09-14T22:18:35.719Z,7.37
2022-09-14T22:21:04.164Z,6.20
2022-09-14T22:23:32.338Z,5.63
2022-09-14T22:26:00.853Z,5.90
2022-09-14T22:28:28.556Z,5.33
2022-09-14T22:30:57.957Z,8.50
2022-09-14T22:33:25.636Z,9.33
2022-09-14T22:35:54.550Z,5.40
2022-09-14T22:38:23.290Z,8.67
2022-09-14T22:40:56.143Z,6.13
2022-09-14T22:43:24.162Z,5.53
2022-09-14T22:45:52.471Z,5.53
2022-09-14T22:48:22.589Z,4.70
2022-09-14T22:50:52.223Z,5.27
2022-09-14T22:53:20.963Z,3.90
2022-09-14T22:55:48.671Z,3.97
2022-09-14T22:58:21.120Z,4.40
2022-09-14T23:00:49.493Z,3.33
2022-09-14T23:03:18.763Z,4.50
2022-09-14T23:05:52.176Z,4.20
2022-09-14T23:08:20.249Z,6.30
2022-09-14T23:10:48.670Z,3.67
2022-09-14T23:13:16.950Z,4.67
2022-09-14T23:15:45.006Z,5.03
2022-09-14T23:18:13.526Z,10.27
2022-09-14T23:20:43.322Z,4.90
2022-09-14T23:23:13.022Z,4.70
2022-09-14T23:25:41.897Z,5.03
2022-09-14T23:28:12.915Z,3.63
2022-09-14T23:30:40.648Z,4.63
2022-09-14T23:33:08.305Z,4.57
2022-09-14T23:35:37.871Z,4.50
2022-09-14T23:38:05.662Z,5.00
2022-09-14T23:40:34.659Z,3.80
2022-09-14T23:43:02.403Z,4.70
2022-09-14T23:45:29.940Z,4.83
2022-09-14T23:47:57.573Z,5.07
2022-09-14T23:50:25.705Z,9.40
2022-09-14T23:52:57.223Z,7.73
2022-09-14T23:55:24.858Z,6.33
2022-09-14T23:57:54.011Z,5.20
